Time;durP1;ratioP1;P1;durP2;ratioP2;P2;SDS_P1;SDS_P2;PMS_P1;PMS_P2;Temp;Humidity;BMP_temperature;BMP_pressure;BME280_temperature;BME280_humidity;BME280_pressure;Samples;Min_cycle;Max_cycle;Signal;HPM_P1;HPM_P2
2021/04/16 00:02:09;;;;;;;10.32;9.32;;;3.00;99.90;;;;;;4871967;29;20285;-72
2021/04/16 00:04:36;;;;;;;10.48;9.63;;;3.00;99.90;;;;;;4889401;29;20052;-73
2021/04/16 00:07:02;;;;;;;11.18;10.18;;;2.90;99.90;;;;;;4888511;29;20063;-72
2021/04/16 00:09:29;;;;;;;10.25;9.43;;;3.00;99.90;;;;;;4888900;29;20093;-71
2021/04/16 00:11:55;;;;;;;11.82;10.77;;;3.00;99.90;;;;;;4874055;29;20045;-72
2021/04/16 00:14:22;;;;;;;13.93;8.93;;;3.10;99.90;;;;;;4860986;29;20068;-73
2021/04/16 00:16:49;;;;;;;11.63;9.95;;;3.10;99.90;;;;;;4906453;29;20057;-73
2021/04/16 00:19:16;;;;;;;14.40;9.43;;;3.10;99.90;;;;;;4888454;29;20090;-72
2021/04/16 00:21:43;;;;;;;12.32;10.13;;;3.00;99.90;;;;;;4888384;29;20476;-73
2021/04/16 00:24:12;;;;;;;11.25;10.02;;;3.00;99.90;;;;;;4872744;29;20053;-72
2021/04/16 00:26:41;;;;;;;11.27;10.07;;;3.00;99.90;;;;;;4871709;29;20097;-70
2021/04/16 00:29:08;;;;;;;11.43;9.98;;;3.10;99.90;;;;;;4888669;29;20398;-73
2021/04/16 00:31:36;;;;;;;10.48;9.48;;;3.10;99.90;;;;;;4872474;29;20440;-73
2021/04/16 00:34:03;;;;;;;11.35;9.75;;;3.10;99.90;;;;;;4874149;29;20057;-73
2021/04/16 00:36:31;;;;;;;12.18;10.80;;;3.10;99.90;;;;;;4903401;29;20044;-72
2021/04/16 00:38:57;;;;;;;11.93;10.27;;;3.20;99.90;;;;;;4907551;29;20055;-72
2021/04/16 00:41:28;;;;;;;14.82;11.07;;;3.20;99.90;;;;;;4875295;29;20083;-73
2021/04/16 00:43:55;;;;;;;12.43;11.25;;;3.30;99.90;;;;;;4904690;29;20509;-73
2021/04/16 00:46:59;;;;;;;13.23;11.55;;;3.30;99.90;;;;;;4873469;29;20100;-72
2021/04/16 00:49:29;;;;;;;14.05;10.70;;;3.30;99.90;;;;;;4888656;29;20057;-72
2021/04/16 00:52:00;;;;;;;11.77;10.57;;;3.40;99.90;;;;;;4895313;29;20059;-72
2021/04/16 00:54:29;;;;;;;11.35;10.05;;;3.30;99.90;;;;;;4897421;29;20061;-73
2021/04/16 00:56:56;;;;;;;15.30;11.73;;;3.30;99.90;;;;;;4855030;29;20464;-72
2021/04/16 00:59:27;;;;;;;15.27;10.77;;;3.30;99.90;;;;;;4888639;29;20048;-73
2021/04/16 01:01:59;;;;;;;11.93;10.80;;;3.10;99.90;;;;;;4890263;29;20057;-73
2021/04/16 01:04:27;;;;;;;11.43;10.45;;;3.10;99.90;;;;;;4902435;29;20496;-72
2021/04/16 01:06:54;;;;;;;10.10;9.40;;;3.20;99.90;;;;;;4872138;29;20059;-72
2021/04/16 01:09:21;;;;;;;10.10;9.40;;;3.50;99.90;;;;;;4879417;29;20071;-70
2021/04/16 01:11:47;;;;;;;10.95;10.02;;;3.70;99.90;;;;;;4873153;29;20044;-72
2021/04/16 01:14:14;;;;;;;10.55;9.57;;;3.80;99.90;;;;;;4881488;29;20059;-72
2021/04/16 01:16:42;;;;;;;10.85;9.88;;;3.80;99.90;;;;;;4874196;29;20136;-71
2021/04/16 01:19:21;;;;;;;10.70;10.00;;;3.80;99.90;;;;;;4898710;29;20125;-73
2021/04/16 01:22:11;;;;;;;10.15;9.45;;;3.90;99.90;;;;;;4868485;29;20060;-72
2021/04/16 01:24:38;;;;;;;10.43;9.73;;;3.90;99.90;;;;;;4869957;29;20053;-71
2021/04/16 01:27:11;;;;;;;11.25;10.43;;;3.90;99.90;;;;;;4875560;29;20068;-71
2021/04/16 01:29:40;;;;;;;11.73;10.63;;;3.90;99.90;;;;;;4885892;29;20148;-72
2021/04/16 01:32:09;;;;;;;11.23;10.32;;;4.00;99.90;;;;;;4872514;29;20061;-71
2021/04/16 01:34:36;;;;;;;10.32;9.38;;;3.90;99.90;;;;;;4886521;29;20071;-71
2021/04/16 01:37:03;;;;;;;10.27;9.35;;;3.90;99.90;;;;;;4874005;29;20060;-69
2021/04/16 01:39:32;;;;;;;9.77;9.07;;;3.80;99.90;;;;;;4890411;29;20427;-72
2021/04/16 01:41:59;;;;;;;10.02;9.32;;;3.90;99.90;;;;;;4889011;29;20075;-72
2021/04/16 01:44:29;;;;;;;10.93;10.13;;;3.90;99.90;;;;;;4875447;29;20085;-71
2021/04/16 01:46:59;;;;;;;10.02;9.43;;;3.90;99.90;;;;;;4902165;29;20162;-71
2021/04/16 01:49:37;;;;;;;10.40;9.50;;;4.00;99.90;;;;;;4898423;29;20113;-71
2021/04/16 01:52:05;;;;;;;10.48;9.50;;;4.00;99.90;;;;;;4879521;29;20429;-71
2021/04/16 01:54:37;;;;;;;10.15;9.35;;;4.00;99.90;;;;;;4893560;29;20053;-72
2021/04/16 01:57:07;;;;;;;10.07;9.27;;;4.00;99.90;;;;;;4873801;29;20056;-72
2021/04/16 01:59:36;;;;;;;10.20;9.35;;;4.00;99.90;;;;;;4891666;29;20053;-71
2021/04/16 02:02:08;;;;;;;10.00;9.05;;;4.00;99.90;;;;;;4889710;29;20063;-72
2021/04/16 02:04:35;;;;;;;9.65;8.98;;;4.00;99.90;;;;;;4872492;29;20128;-71
2021/04/16 02:07:01;;;;;;;9.20;8.50;;;3.80;99.90;;;;;;4904257;29;20056;-72
2021/04/16 02:09:32;;;;;;;9.32;8.38;;;3.80;99.90;;;;;;4874800;29;20067;-72
2021/04/16 02:11:58;;;;;;;9.05;8.30;;;3.80;99.90;;;;;;4888829;29;20064;-72
2021/04/16 02:14:27;;;;;;;8.75;8.15;;;3.80;99.90;;;;;;4882764;29;20061;-72
2021/04/16 02:16:57;;;;;;;9.52;8.73;;;3.80;99.90;;;;;;4903529;29;20089;-72
2021/04/16 02:19:24;;;;;;;10.40;9.35;;;3.80;99.90;;;;;;4895210;29;20128;-71
2021/04/16 02:21:51;;;;;;;9.68;8.77;;;3.80;99.90;;;;;;4888746;29;20693;-71
2021/04/16 02:24:19;;;;;;;9.68;8.88;;;3.80;99.90;;;;;;4882473;29;20189;-71
2021/04/16 02:26:46;;;;;;;9.80;8.85;;;3.80;99.90;;;;;;4883797;29;20057;-71
2021/04/16 02:29:14;;;;;;;10.25;9.43;;;3.70;99.90;;;;;;4888500;29;20135;-72
2021/04/16 02:31:42;;;;;;;9.50;8.70;;;3.70;99.90;;;;;;4877652;29;20083;-72
2021/04/16 02:34:17;;;;;;;9.55;8.85;;;3.70;99.90;;;;;;4889892;29;20538;-72
2021/04/16 02:36:43;;;;;;;9.60;8.90;;;3.90;99.90;;;;;;4875664;29;20049;-72
2021/04/16 02:39:10;;;;;;;10.57;9.65;;;3.90;99.90;;;;;;4891671;29;20480;-73
2021/04/16 02:41:37;;;;;;;10.68;9.63;;;4.00;99.90;;;;;;4893195;29;20059;-73
2021/04/16 02:44:04;;;;;;;9.55;8.85;;;4.00;99.90;;;;;;4874598;29;20096;-73
2021/04/16 02:46:32;;;;;;;10.43;9.43;;;4.00;99.90;;;;;;4889510;29;20053;-72
2021/04/16 02:48:59;;;;;;;9.65;8.85;;;4.10;99.90;;;;;;4890893;29;20131;-73
2021/04/16 02:51:26;;;;;;;9.55;8.65;;;4.00;99.90;;;;;;4904268;29;20048;-72
2021/04/16 02:53:52;;;;;;;9.07;8.45;;;4.10;99.90;;;;;;4872783;29;20080;-73
2021/04/16 02:56:19;;;;;;;10.18;9.38;;;4.00;99.90;;;;;;4874489;29;20440;-71
2021/04/16 02:58:46;;;;;;;9.50;8.68;;;3.90;99.90;;;;;;4878316;29;20052;-72
2021/04/16 03:01:12;;;;;;;9.63;8.93;;;3.90;99.90;;;;;;4881116;29;20135;-72
2021/04/16 03:03:39;;;;;;;10.32;9.18;;;3.90;99.90;;;;;;4891782;29;20064;-72
2021/04/16 03:06:06;;;;;;;9.85;9.15;;;4.10;99.90;;;;;;4903340;29;20067;-73
2021/04/16 03:08:33;;;;;;;10.80;9.70;;;4.00;99.90;;;;;;4873541;29;20116;-73
2021/04/16 03:11:01;;;;;;;10.50;9.55;;;4.00;99.90;;;;;;4897730;29;20063;-72
2021/04/16 03:13:27;;;;;;;10.35;9.38;;;3.90;99.90;;;;;;4892581;29;20049;-73
2021/04/16 03:15:54;;;;;;;13.93;9.65;;;4.00;99.90;;;;;;4872840;29;20087;-72
2021/04/16 03:18:21;;;;;;;11.80;8.82;;;4.00;99.90;;;;;;4886845;29;20539;-72
2021/04/16 03:20:47;;;;;;;10.05;9.07;;;3.90;99.90;;;;;;4889628;29;20338;-72
2021/04/16 03:23:13;;;;;;;10.73;9.77;;;4.00;99.90;;;;;;4915273;29;20056;-71
2021/04/16 03:25:40;;;;;;;10.52;9.57;;;4.10;99.90;;;;;;4858912;29;20592;-72
2021/04/16 03:28:07;;;;;;;9.80;9.07;;;4.10;99.90;;;;;;4872431;29;20099;-72
2021/04/16 03:30:34;;;;;;;10.20;9.23;;;4.10;99.90;;;;;;4857137;29;20057;-72
2021/04/16 03:33:00;;;;;;;10.27;9.48;;;4.20;99.90;;;;;;4887637;29;20083;-72
2021/04/16 03:35:27;;;;;;;10.77;9.88;;;4.10;99.90;;;;;;4887099;29;20081;-72
2021/04/16 03:37:54;;;;;;;10.07;9.38;;;4.00;99.90;;;;;;4882157;29;20136;-71
2021/04/16 03:40:24;;;;;;;9.98;8.95;;;4.10;99.90;;;;;;4881008;29;20190;-72
2021/04/16 03:42:51;;;;;;;9.57;8.68;;;3.90;99.90;;;;;;4884625;29;20080;-72
2021/04/16 03:45:19;;;;;;;8.80;8.10;;;3.70;99.90;;;;;;4872302;29;20059;-74
2021/04/16 03:47:46;;;;;;;8.82;8.07;;;3.60;99.90;;;;;;4873074;29;20045;-72
2021/04/16 03:50:16;;;;;;;8.57;7.75;;;3.50;99.90;;;;;;4871239;29;20120;-73
2021/04/16 03:52:43;;;;;;;9.25;7.75;;;3.60;99.90;;;;;;4889534;29;20055;-72
2021/04/16 03:55:10;;;;;;;8.20;7.47;;;3.50;99.90;;;;;;4883985;29;20068;-71
2021/04/16 03:57:36;;;;;;;9.43;7.32;;;3.60;99.90;;;;;;4890885;29;20052;-71
2021/04/16 04:00:05;;;;;;;7.63;6.82;;;3.70;99.90;;;;;;4887921;29;20049;-74
2021/04/16 04:02:33;;;;;;;7.50;6.80;;;3.60;99.90;;;;;;4887716;29;20326;-73
2021/04/16 04:05:00;;;;;;;7.47;6.65;;;3.50;99.90;;;;;;4871918;29;20057;-73
2021/04/16 04:07:27;;;;;;;8.77;6.05;;;3.40;99.90;;;;;;4873709;29;20056;-72
2021/04/16 04:09:53;;;;;;;7.60;5.90;;;3.30;99.90;;;;;;4898019;29;20507;-73
2021/04/16 04:12:20;;;;;;;6.82;6.05;;;3.20;99.90;;;;;;4872367;29;20428;-72
2021/04/16 04:14:46;;;;;;;10.05;5.30;;;3.00;99.90;;;;;;4881938;29;20052;-71
2021/04/16 04:17:25;;;;;;;7.00;5.90;;;2.90;99.90;;;;;;4889064;29;20076;-71
2021/04/16 04:19:52;;;;;;;10.82;6.65;;;2.90;99.90;;;;;;4870367;29;20053;-71
2021/04/16 04:22:19;;;;;;;9.68;6.70;;;2.80;99.90;;;;;;4878350;29;20128;-72
2021/04/16 04:24:45;;;;;;;7.95;6.07;;;2.70;99.90;;;;;;4871784;29;20685;-72
2021/04/16 04:27:12;;;;;;;9.48;6.80;;;2.70;99.90;;;;;;4886824;29;20413;-73
2021/04/16 04:29:39;;;;;;;6.50;5.60;;;2.70;99.90;;;;;;4884331;29;20060;-71
2021/04/16 04:32:07;;;;;;;10.57;6.50;;;2.70;99.90;;;;;;4872097;29;20053;-72
2021/04/16 04:34:34;;;;;;;8.07;6.45;;;2.60;99.90;;;;;;4898579;29;20112;-73
2021/04/16 04:37:02;;;;;;;10.60;7.00;;;2.50;99.90;;;;;;4886536;29;20071;-73
2021/04/16 04:39:33;;;;;;;11.90;7.43;;;2.40;99.90;;;;;;4883245;29;20311;-73
2021/04/16 04:42:01;;;;;;;10.50;6.97;;;2.40;99.90;;;;;;4872003;29;20063;-72
2021/04/16 04:44:28;;;;;;;10.45;7.38;;;2.40;99.90;;;;;;4884993;29;20056;-72
2021/04/16 04:46:54;;;;;;;11.80;8.10;;;2.30;99.90;;;;;;4886579;29;20119;-72
2021/04/16 04:49:21;;;;;;;10.80;7.88;;;2.20;99.90;;;;;;4874474;29;20053;-71
2021/04/16 04:51:49;;;;;;;11.63;8.02;;;2.00;99.90;;;;;;4884481;29;20047;-72
2021/04/16 04:54:18;;;;;;;12.35;8.95;;;2.00;99.90;;;;;;4870231;29;20132;-72
2021/04/16 04:56:44;;;;;;;10.52;8.23;;;2.00;99.90;;;;;;4871047;29;20521;-71
2021/04/16 04:59:11;;;;;;;14.02;7.70;;;1.90;99.90;;;;;;4885902;29;20145;-72
2021/04/16 05:01:37;;;;;;;17.80;8.63;;;2.10;99.90;;;;;;4885410;29;20105;-71
2021/04/16 05:04:05;;;;;;;10.43;7.80;;;2.00;99.90;;;;;;4871974;29;20057;-72
2021/04/16 05:06:32;;;;;;;10.13;7.75;;;2.00;99.90;;;;;;4888257;29;20047;-72
2021/04/16 05:08:58;;;;;;;10.38;7.40;;;2.20;99.90;;;;;;4854961;29;20057;-72
2021/04/16 05:11:25;;;;;;;12.13;7.57;;;2.20;99.90;;;;;;4870571;29;20477;-72
2021/04/16 05:13:52;;;;;;;9.13;6.80;;;2.20;99.90;;;;;;4871858;29;20057;-73
2021/04/16 05:16:19;;;;;;;32.80;15.18;;;2.20;99.90;;;;;;4871747;29;20064;-71
2021/04/16 05:18:48;;;;;;;11.55;8.68;;;2.20;99.90;;;;;;4894487;29;20056;-73
2021/04/16 05:21:15;;;;;;;11.23;8.57;;;2.20;99.90;;;;;;4858153;29;20543;-72
2021/04/16 05:23:42;;;;;;;13.40;8.13;;;2.30;99.90;;;;;;4886830;29;20488;-72
2021/04/16 05:26:09;;;;;;;12.57;8.30;;;2.30;99.90;;;;;;4837631;29;20088;-73
2021/04/16 05:28:36;;;;;;;11.20;7.75;;;2.30;99.90;;;;;;4901525;29;20057;-71
2021/04/16 05:31:03;;;;;;;12.32;8.38;;;2.40;99.90;;;;;;4901721;29;20512;-72
2021/04/16 05:33:29;;;;;;;8.63;6.00;;;2.20;99.90;;;;;;4896523;29;20417;-73
2021/04/16 05:35:57;;;;;;;9.43;7.55;;;2.20;99.90;;;;;;4880088;29;20642;-72
2021/04/16 05:38:26;;;;;;;12.43;7.25;;;2.20;99.90;;;;;;4889242;29;20119;-72
2021/04/16 05:40:52;;;;;;;10.48;6.82;;;2.20;99.90;;;;;;4888162;29;20496;-73
2021/04/16 05:43:19;;;;;;;8.20;6.57;;;2.20;99.90;;;;;;4885905;29;20491;-72
2021/04/16 05:45:45;;;;;;;7.43;5.50;;;2.30;99.90;;;;;;4879506;29;20044;-71
2021/04/16 05:48:12;;;;;;;10.32;7.03;;;2.30;99.90;;;;;;4888260;29;20096;-72
2021/04/16 05:50:39;;;;;;;10.88;7.00;;;2.30;99.90;;;;;;4873802;29;20528;-72
2021/04/16 05:53:05;;;;;;;12.40;6.93;;;2.30;99.90;;;;;;4893664;29;20057;-72
2021/04/16 05:55:31;;;;;;;15.80;10.57;;;2.60;99.90;;;;;;4885834;29;20056;-72
2021/04/16 05:57:58;;;;;;;7.43;6.35;;;2.70;99.90;;;;;;4872891;29;20091;-71
2021/04/16 06:00:25;;;;;;;7.28;5.57;;;2.80;99.90;;;;;;4886701;29;20060;-73
2021/04/16 06:02:53;;;;;;;7.35;6.65;;;2.70;99.90;;;;;;4898135;29;20056;-73
2021/04/16 06:05:21;;;;;;;8.75;7.85;;;2.70;99.90;;;;;;4905017;29;20052;-73
2021/04/16 06:07:48;;;;;;;10.98;7.68;;;2.60;99.90;;;;;;4859125;29;20044;-72
2021/04/16 06:10:16;;;;;;;14.63;10.95;;;2.60;99.90;;;;;;4889283;29;20052;-71
2021/04/16 06:12:43;;;;;;;16.48;11.77;;;2.60;99.90;;;;;;4890047;29;20523;-71
2021/04/16 06:15:14;;;;;;;13.77;9.98;;;2.80;99.90;;;;;;4889578;29;20056;-73
2021/04/16 06:17:41;;;;;;;11.48;7.90;;;3.00;99.90;;;;;;4905802;29;20064;-73
2021/04/16 06:20:09;;;;;;;9.98;7.45;;;3.10;99.90;;;;;;4886141;29;20064;-71
2021/04/16 06:22:36;;;;;;;9.43;8.52;;;3.30;99.90;;;;;;4886045;29;20059;-73
2021/04/16 06:25:06;;;;;;;9.27;8.48;;;3.40;99.90;;;;;;4866646;29;20600;-73
2021/04/16 06:27:33;;;;;;;9.73;8.82;;;3.40;99.90;;;;;;4904615;29;20087;-72
2021/04/16 06:29:59;;;;;;;9.45;8.55;;;3.60;99.90;;;;;;4888498;29;20464;-72
2021/04/16 06:32:26;;;;;;;10.73;9.63;;;3.80;99.90;;;;;;4889242;29;20040;-71
2021/04/16 06:34:53;;;;;;;10.80;9.90;;;4.00;99.90;;;;;;4888985;29;20127;-73
2021/04/16 06:37:19;;;;;;;10.57;9.57;;;4.20;99.90;;;;;;4888840;29;20056;-72
2021/04/16 06:39:46;;;;;;;10.52;9.57;;;4.40;99.90;;;;;;4888962;29;20075;-73
2021/04/16 06:42:26;;;;;;;13.32;10.63;;;4.50;99.90;;;;;;4902836;29;20108;-72
2021/04/16 06:44:57;;;;;;;12.80;11.80;;;4.70;99.90;;;;;;4895332;29;20069;-72
2021/04/16 06:47:41;;;;;;;13.70;12.50;;;4.90;99.90;;;;;;4870411;29;20562;-72
2021/04/16 06:50:12;;;;;;;12.85;11.85;;;5.20;99.90;;;;;;4881051;29;20140;-72
2021/04/16 06:52:50;;;;;;;12.75;11.75;;;5.40;99.90;;;;;;4855498;29;20060;-72
2021/04/16 06:55:22;;;;;;;12.82;11.90;;;5.60;99.90;;;;;;4883514;29;20493;-71
2021/04/16 06:58:29;;;;;;;13.02;11.95;;;5.70;99.90;;;;;;4894693;29;20135;-72
2021/04/16 07:01:08;;;;;;;13.10;12.20;;;5.60;99.90;;;;;;4830918;29;20145;-72
2021/04/16 07:03:48;;;;;;;13.40;12.45;;;5.60;99.90;;;;;;4885423;29;20056;-71
2021/04/16 07:06:24;;;;;;;13.27;12.38;;;5.70;99.90;;;;;;4891037;29;20052;-72
2021/04/16 07:08:55;;;;;;;13.55;12.20;;;5.60;99.90;;;;;;4888757;29;20059;-73
2021/04/16 07:11:21;;;;;;;13.23;12.10;;;5.70;99.90;;;;;;4884743;29;20116;-74
2021/04/16 07:13:48;;;;;;;12.88;12.07;;;5.50;99.90;;;;;;4905975;29;20063;-72
2021/04/16 07:16:17;;;;;;;14.23;13.23;;;5.30;99.90;;;;;;4886412;29;20073;-71
2021/04/16 07:18:48;;;;;;;14.10;13.10;;;5.20;99.90;;;;;;4890423;29;20053;-73
2021/04/16 07:21:17;;;;;;;12.82;11.90;;;5.30;99.90;;;;;;4888943;29;20057;-73
2021/04/16 07:23:56;;;;;;;13.68;12.45;;;5.10;99.90;;;;;;4909815;29;20496;-73
2021/04/16 07:26:42;;;;;;;14.13;13.20;;;5.20;99.90;;;;;;4891933;29;20539;-71
2021/04/16 07:29:20;;;;;;;14.82;13.68;;;5.50;99.90;;;;;;4891268;29;20085;-73
2021/04/16 07:31:49;;;;;;;14.52;13.00;;;5.60;99.90;;;;;;4880928;29;20049;-70
2021/04/16 07:34:28;;;;;;;13.50;12.50;;;5.80;99.90;;;;;;4859200;29;20049;-73
2021/04/16 07:37:04;;;;;;;13.48;12.57;;;6.00;99.90;;;;;;4899328;29;20100;-73
2021/04/16 07:39:34;;;;;;;13.60;12.50;;;6.20;99.90;;;;;;4892802;29;20512;-72
2021/04/16 07:42:10;;;;;;;13.43;12.30;;;6.20;99.90;;;;;;4873212;29;20420;-73
2021/04/16 07:44:40;;;;;;;13.50;12.57;;;6.30;99.90;;;;;;4885537;29;20057;-71
2021/04/16 07:47:13;;;;;;;14.85;13.65;;;6.30;99.90;;;;;;4883194;29;20706;-74
2021/04/16 07:50:32;;;;;;;13.48;12.30;;;6.30;99.90;;;;;;4884698;29;20065;-74
2021/04/16 07:52:59;;;;;;;12.77;11.95;;;6.40;99.90;;;;;;4853127;29;20525;-73
2021/04/16 07:55:33;;;;;;;13.88;12.98;;;6.20;99.90;;;;;;4857002;29;20393;-71
2021/04/16 07:58:21;;;;;;;14.60;13.50;;;6.00;99.90;;;;;;4883445;29;20248;-73
2021/04/16 08:00:51;;;;;;;14.63;13.35;;;5.90;99.90;;;;;;4892214;29;20068;-72
2021/04/16 08:03:24;;;;;;;13.35;12.35;;;5.90;99.90;;;;;;4908246;29;20059;-74
2021/04/16 08:05:59;;;;;;;13.65;12.75;;;6.00;99.90;;;;;;4904238;29;20057;-73
2021/04/16 08:08:31;;;;;;;14.73;13.48;;;6.00;99.90;;;;;;4906059;29;20084;-72
2021/04/16 08:11:00;;;;;;;13.32;12.32;;;6.10;99.90;;;;;;4875723;29;20045;-74
2021/04/16 08:13:43;;;;;;;14.73;13.73;;;6.30;99.90;;;;;;4905712;29;20079;-71
2021/04/16 08:16:19;;;;;;;13.75;12.77;;;6.50;99.90;;;;;;4881214;29;20842;-72
2021/04/16 08:19:01;;;;;;;13.63;12.43;;;6.60;99.90;;;;;;4879058;29;20142;-73
2021/04/16 08:21:31;;;;;;;14.18;13.02;;;6.80;99.90;;;;;;4868805;29;20064;-73
2021/04/16 08:24:22;;;;;;;14.20;13.02;;;6.70;99.90;;;;;;4891946;29;20064;-72
2021/04/16 08:27:03;;;;;;;14.68;13.73;;;6.50;99.90;;;;;;4871910;29;20048;-71
2021/04/16 08:29:37;;;;;;;13.38;12.43;;;6.20;99.90;;;;;;4872895;29;20147;-73
2021/04/16 08:32:10;;;;;;;13.93;12.93;;;6.30;99.90;;;;;;4871406;29;20101;-72
2021/04/16 08:34:43;;;;;;;15.18;14.05;;;6.40;99.90;;;;;;4886331;29;20136;-73
2021/04/16 08:37:24;;;;;;;13.30;12.40;;;6.60;99.90;;;;;;4875113;29;20207;-72
2021/04/16 08:39:51;;;;;;;14.90;13.50;;;6.80;99.90;;;;;;4905933;29;20056;-73
2021/04/16 08:42:29;;;;;;;15.88;13.48;;;6.90;99.90;;;;;;4886145;29;20076;-72
2021/04/16 08:45:00;;;;;;;15.07;13.85;;;7.00;99.90;;;;;;4887465;29;20139;-72
2021/04/16 08:47:32;;;;;;;15.95;14.45;;;6.90;99.90;;;;;;4852042;29;20052;-73
2021/04/16 08:50:00;;;;;;;14.77;13.68;;;6.40;99.90;;;;;;4892032;29;20129;-72
2021/04/16 08:52:37;;;;;;;14.75;13.43;;;6.40;99.90;;;;;;4888761;29;20060;-73
2021/04/16 08:55:21;;;;;;;15.90;14.43;;;6.60;99.90;;;;;;4899664;29;20511;-73
2021/04/16 08:58:10;;;;;;;16.35;15.13;;;7.00;99.90;;;;;;4876784;29;20061;-72
2021/04/16 09:00:47;;;;;;;15.65;14.13;;;7.10;99.90;;;;;;4864951;29;20053;-74
2021/04/16 09:03:54;;;;;;;14.18;13.27;;;7.10;99.90;;;;;;4888339;29;20417;-73
2021/04/16 09:06:23;;;;;;;14.82;13.45;;;7.40;99.90;;;;;;4857814;29;20049;-72
2021/04/16 09:08:50;;;;;;;13.52;12.63;;;7.30;99.90;;;;;;4903140;29;20530;-72
2021/04/16 09:11:45;;;;;;;14.75;13.40;;;7.20;99.90;;;;;;4871036;29;20060;-72
2021/04/16 09:14:24;;;;;;;13.57;12.48;;;7.20;99.90;;;;;;4874943;29;20044;-72
2021/04/16 09:16:57;;;;;;;14.60;13.43;;;7.30;99.90;;;;;;4885565;29;20061;-71
2021/04/16 09:19:27;;;;;;;13.77;12.87;;;7.30;99.90;;;;;;4891329;29;20877;-73
2021/04/16 09:22:06;;;;;;;14.10;13.02;;;7.30;99.90;;;;;;4889706;29;20730;-72
2021/04/16 09:24:41;;;;;;;13.00;12.25;;;7.20;99.90;;;;;;4874787;29;20052;-75
2021/04/16 09:27:40;;;;;;;13.98;12.90;;;7.20;99.90;;;;;;4889850;29;20715;-73
2021/04/16 09:30:07;;;;;;;13.10;12.30;;;7.60;99.90;;;;;;4905786;29;20617;-74
2021/04/16 09:32:42;;;;;;;12.45;11.65;;;7.80;99.90;;;;;;4888075;29;20049;-74
2021/04/16 09:35:32;;;;;;;12.57;11.68;;;8.00;99.90;;;;;;4890545;29;20059;-74
2021/04/16 09:38:21;;;;;;;13.30;12.50;;;8.00;99.90;;;;;;4840421;29;20445;-73
2021/04/16 09:41:07;;;;;;;13.60;12.60;;;8.10;99.90;;;;;;4870009;29;20125;-72
2021/04/16 09:43:34;;;;;;;13.38;12.48;;;8.30;99.90;;;;;;4887297;29;20056;-73
2021/04/16 09:46:30;;;;;;;13.20;12.40;;;8.10;99.90;;;;;;4892522;29;20574;-72
2021/04/16 09:49:05;;;;;;;13.60;12.70;;;8.30;99.90;;;;;;4871863;29;20049;-74
2021/04/16 09:51:39;;;;;;;13.85;13.05;;;8.40;99.90;;;;;;4899865;29;20428;-74
2021/04/16 09:54:08;;;;;;;14.27;13.38;;;8.50;99.90;;;;;;4873520;29;20523;-71
2021/04/16 09:56:36;;;;;;;14.68;13.73;;;8.70;99.90;;;;;;4888945;29;20075;-73
2021/04/16 09:59:08;;;;;;;13.23;12.50;;;8.80;99.90;;;;;;4886751;29;20168;-72
2021/04/16 10:02:10;;;;;;;14.38;13.48;;;9.10;99.90;;;;;;4879953;29;20500;-76
2021/04/16 10:04:43;;;;;;;13.98;12.57;;;8.90;99.90;;;;;;4866833;29;20056;-71
2021/04/16 10:07:11;;;;;;;14.70;13.35;;;8.80;99.90;;;;;;4873243;29;20045;-73
2021/04/16 10:09:37;;;;;;;14.05;13.05;;;8.60;99.90;;;;;;4878346;29;20061;-72
2021/04/16 10:12:26;;;;;;;13.43;12.52;;;8.50;99.90;;;;;;4904285;29;20087;-73
2021/04/16 10:14:53;;;;;;;12.98;12.07;;;8.30;99.90;;;;;;4855160;29;20057;-72
2021/04/16 10:17:23;;;;;;;14.27;13.38;;;8.20;99.90;;;;;;4885112;29;20053;-74
2021/04/16 10:20:00;;;;;;;14.38;13.18;;;8.30;99.90;;;;;;4897425;29;20057;-72
2021/04/16 10:22:30;;;;;;;14.32;13.43;;;8.50;99.90;;;;;;4890070;29;20060;-70
2021/04/16 10:40:44;;;;;;;14.15;13.02;;;8.90;99.90;;;;;;4897054;29;20057;-72
2021/04/16 12:38:48;;;;;;;15.00;13.60;;;11.20;99.90;;;;;;4885618;29;20084;-72
2021/04/16 12:41:19;;;;;;;15.05;14.13;;;11.50;99.90;;;;;;4871733;29;20120;-74
2021/04/16 12:43:48;;;;;;;14.13;13.25;;;10.80;99.90;;;;;;4887732;29;20057;-72
2021/04/16 12:46:18;;;;;;;15.05;14.00;;;10.40;99.90;;;;;;4893992;29;20060;-72
2021/04/16 12:48:45;;;;;;;14.70;13.30;;;10.70;99.90;;;;;;4872873;29;20049;-72
2021/04/16 12:51:13;;;;;;;14.20;13.18;;;10.70;99.90;;;;;;4890689;29;20452;-71
2021/04/16 12:53:39;;;;;;;13.43;12.57;;;10.40;99.90;;;;;;4890989;29;20044;-73
2021/04/16 12:56:08;;;;;;;12.93;12.23;;;10.00;99.90;;;;;;4887947;29;20108;-71
2021/04/16 12:58:40;;;;;;;14.23;13.32;;;9.90;99.90;;;;;;4891651;29;20524;-71
2021/04/16 13:01:14;;;;;;;15.18;13.88;;;10.30;99.90;;;;;;4874897;29;20063;-71
2021/04/16 13:03:42;;;;;;;14.60;13.70;;;10.20;99.90;;;;;;4860529;29;20060;-71
2021/04/16 13:06:32;;;;;;;14.48;13.57;;;10.30;99.90;;;;;;4889766;29;20049;-71
2021/04/16 13:08:59;;;;;;;13.95;12.82;;;10.50;99.90;;;;;;4866545;29;20045;-72
2021/04/16 13:11:27;;;;;;;15.43;14.23;;;10.70;99.90;;;;;;4874854;29;20048;-72
2021/04/16 13:13:55;;;;;;;14.07;12.95;;;10.70;99.90;;;;;;4883747;29;20045;-72
2021/04/16 13:16:23;;;;;;;13.23;12.23;;;10.40;99.90;;;;;;4882741;29;20530;-71
2021/04/16 13:18:56;;;;;;;13.00;12.07;;;10.50;99.90;;;;;;4889990;29;20678;-71
2021/04/16 13:21:32;;;;;;;13.20;12.30;;;10.60;99.90;;;;;;4890293;29;20056;-73
2021/04/16 13:24:00;;;;;;;13.25;12.25;;;10.70;99.90;;;;;;4905738;29;20053;-73
2021/04/16 13:26:27;;;;;;;13.20;12.15;;;10.70;99.90;;;;;;4890242;29;20136;-73
2021/04/16 13:28:55;;;;;;;13.23;12.27;;;10.50;99.90;;;;;;4889250;29;20515;-73
2021/04/16 13:31:25;;;;;;;13.68;12.35;;;10.30;99.60;;;;;;4905842;29;20064;-73
2021/04/16 13:33:53;;;;;;;14.20;13.07;;;10.10;99.90;;;;;;4887611;29;20076;-74
2021/04/16 13:36:23;;;;;;;13.85;13.05;;;10.00;99.90;;;;;;4884525;29;20055;-73
2021/04/16 13:38:50;;;;;;;13.93;13.05;;;10.30;99.90;;;;;;4890560;29;20072;-74
2021/04/16 13:41:18;;;;;;;14.15;13.25;;;10.60;99.90;;;;;;4887281;29;20069;-73
2021/04/16 13:43:45;;;;;;;12.50;11.80;;;10.90;99.90;;;;;;4873755;29;20135;-73
2021/04/16 13:46:18;;;;;;;12.93;12.23;;;10.80;95.60;;;;;;4904047;29;20056;-72
2021/04/16 13:48:47;;;;;;;12.52;11.63;;;11.00;96.50;;;;;;4887262;29;20112;-71
2021/04/16 13:51:15;;;;;;;13.52;12.77;;;11.40;97.60;;;;;;4854149;29;20060;-73
2021/04/16 13:53:42;;;;;;;14.30;13.27;;;11.10;95.90;;;;;;4886468;29;20056;-72
2021/04/16 13:56:09;;;;;;;13.57;12.57;;;11.00;96.60;;;;;;4877542;29;20121;-73
2021/04/16 13:58:36;;;;;;;14.95;13.88;;;11.10;98.30;;;;;;4873233;29;20084;-72
2021/04/16 14:01:04;;;;;;;14.38;13.38;;;11.60;98.90;;;;;;4871023;29;20053;-73
2021/04/16 14:03:43;;;;;;;14.18;13.27;;;11.90;96.20;;;;;;4887152;29;20055;-73
2021/04/16 14:06:20;;;;;;;14.13;13.13;;;11.50;95.20;;;;;;4870379;29;20060;-72
2021/04/16 14:09:03;;;;;;;14.05;13.25;;;11.10;97.50;;;;;;4872978;29;20509;-72
2021/04/16 14:11:33;;;;;;;14.57;13.77;;;10.40;98.40;;;;;;4857289;29;20053;-73
2021/04/16 14:14:07;;;;;;;15.30;14.20;;;10.50;99.90;;;;;;4900209;29;20056;-73
2021/04/16 14:16:37;;;;;;;14.07;12.93;;;10.80;99.10;;;;;;4893870;29;20057;-73
2021/04/16 14:19:17;;;;;;;14.80;13.90;;;11.00;97.60;;;;;;4904589;29;20117;-72
2021/04/16 14:21:45;;;;;;;13.80;12.90;;;11.20;97.40;;;;;;4861050;29;20104;-72
2021/04/16 14:24:13;;;;;;;15.45;14.10;;;10.70;95.80;;;;;;4878524;29;20048;-72
2021/04/16 14:26:42;;;;;;;14.05;13.15;;;10.70;96.10;;;;;;4893025;29;20079;-72
2021/04/16 14:29:10;;;;;;;14.98;13.88;;;10.60;94.60;;;;;;4888901;29;20097;-73
2021/04/16 14:31:42;;;;;;;13.65;12.75;;;10.70;94.00;;;;;;4904082;29;20658;-71
2021/04/16 14:34:14;;;;;;;13.88;12.70;;;10.50;94.90;;;;;;4905616;29;20049;-70
2021/04/16 14:36:40;;;;;;;13.65;12.80;;;10.50;96.70;;;;;;4877548;29;20303;-72
2021/04/16 14:39:08;;;;;;;13.82;12.82;;;10.80;96.80;;;;;;4873236;29;20089;-72
2021/04/16 14:41:37;;;;;;;16.45;15.35;;;11.00;97.60;;;;;;4876584;29;20049;-73
2021/04/16 14:44:06;;;;;;;16.00;14.90;;;11.00;96.50;;;;;;4885646;29;20057;-72
2021/04/16 14:46:33;;;;;;;18.08;16.67;;;10.70;92.90;;;;;;4883943;29;20517;-71
2021/04/16 14:49:00;;;;;;;15.20;14.10;;;10.50;95.10;;;;;;4891973;29;20052;-72
2021/04/16 14:51:29;;;;;;;14.40;13.43;;;10.40;94.00;;;;;;4893152;29;20748;-71
2021/04/16 14:54:04;;;;;;;20.02;16.88;;;10.20;95.80;;;;;;4890683;29;20112;-73
2021/04/16 14:56:31;;;;;;;14.77;13.77;;;10.00;95.50;;;;;;4891650;29;20541;-72
2021/04/16 14:59:04;;;;;;;14.43;13.52;;;10.10;95.90;;;;;;4877968;29;20139;-71
2021/04/16 15:01:31;;;;;;;21.05;19.45;;;10.40;95.40;;;;;;4892115;29;20048;-72
2021/04/16 15:03:58;;;;;;;16.83;15.32;;;10.60;95.10;;;;;;4875868;29;20536;-71
2021/04/16 15:06:28;;;;;;;14.57;13.68;;;10.80;96.30;;;;;;4873843;29;20055;-75
2021/04/16 15:09:00;;;;;;;14.23;13.30;;;11.00;96.10;;;;;;4874286;29;20053;-73
2021/04/16 15:11:34;;;;;;;14.95;13.70;;;10.90;96.60;;;;;;4873439;29;20045;-71